createdAt,value
2018-02-06T00:01:40.769Z,4.63
2018-02-06T00:04:08.379Z,4.63
2018-02-06T00:06:35.970Z,4.62
2018-02-06T00:09:03.619Z,4.61
2018-02-06T00:11:31.231Z,4.59
2018-02-06T00:13:58.825Z,4.55
2018-02-06T00:16:26.478Z,4.51
2018-02-06T00:18:54.140Z,4.45
2018-02-06T00:21:21.740Z,4.40
2018-02-06T00:23:49.324Z,4.37
2018-02-06T00:26:16.964Z,4.31
2018-02-06T00:28:44.547Z,4.21
2018-02-06T00:31:12.133Z,4.13
2018-02-06T00:33:40.052Z,4.08
2018-02-06T00:36:07.693Z,4.00
2018-02-06T00:38:35.321Z,3.96
2018-02-06T00:41:20.299Z,3.89
2018-02-06T00:43:47.968Z,3.82
2018-02-06T00:46:15.630Z,3.81
2018-02-06T00:48:43.374Z,3.76
2018-02-06T00:51:11.096Z,3.73
2018-02-06T00:53:38.681Z,3.66
2018-02-06T00:56:06.619Z,3.57
2018-02-06T00:58:34.206Z,3.49
2018-02-06T01:01:01.836Z,3.38
2018-02-06T01:03:29.696Z,3.33
2018-02-06T01:05:57.288Z,3.32
2018-02-06T01:08:24.877Z,3.31
2018-02-06T01:10:52.533Z,3.27
2018-02-06T01:13:20.168Z,3.24
2018-02-06T01:15:47.742Z,3.25
2018-02-06T01:18:15.395Z,3.20
2018-02-06T01:20:42.969Z,3.18
2018-02-06T01:23:10.555Z,3.16
2018-02-06T01:25:38.473Z,3.16
2018-02-06T01:28:06.054Z,3.15
2018-02-06T01:30:33.697Z,3.08
2018-02-06T01:33:01.429Z,3.05
2018-02-06T01:35:29.015Z,3.01
2018-02-06T01:37:56.628Z,3.00
2018-02-06T01:40:24.247Z,3.00
2018-02-06T01:42:51.817Z,3.03
2018-02-06T01:45:19.426Z,3.06
2018-02-06T01:47:47.079Z,3.05
2018-02-06T01:50:14.674Z,3.05
2018-02-06T01:52:42.318Z,3.06
2018-02-06T01:55:09.956Z,3.06
2018-02-06T01:57:37.660Z,3.05
2018-02-06T02:00:05.292Z,3.05
2018-02-06T02:02:33.001Z,3.06
2018-02-06T02:05:00.674Z,3.05
2018-02-06T02:07:28.382Z,3.04
2018-02-06T02:09:56.010Z,3.07
2018-02-06T02:12:23.616Z,3.07
2018-02-06T02:14:51.213Z,3.07
2018-02-06T02:17:18.886Z,3.02
2018-02-06T02:19:46.499Z,3.00
2018-02-06T02:22:14.086Z,2.99
2018-02-06T02:24:41.736Z,2.99
2018-02-06T02:27:09.324Z,2.99
2018-02-06T02:29:36.907Z,2.94
2018-02-06T02:32:04.906Z,2.91
2018-02-06T02:34:32.463Z,2.86
2018-02-06T02:37:00.046Z,2.80
2018-02-06T02:39:28.024Z,2.78
2018-02-06T04:40:01.398Z,2.06
2018-02-06T04:42:28.981Z,2.04
2018-02-06T04:44:56.815Z,1.99
2018-02-06T04:47:24.401Z,1.90
2018-02-06T04:49:52.001Z,1.84
2018-02-06T04:52:19.621Z,1.81
2018-02-06T04:54:47.247Z,1.78
2018-02-06T04:57:14.884Z,1.80
2018-02-06T04:59:42.574Z,1.80
2018-02-06T05:02:10.232Z,1.85
2018-02-06T05:04:37.806Z,1.88
2018-02-06T05:07:05.433Z,1.92
2018-02-06T05:09:33.080Z,1.98
2018-02-06T05:12:00.664Z,2.05
2018-02-06T05:14:28.504Z,2.10
2018-02-06T05:16:56.094Z,2.16
2018-02-06T05:19:23.681Z,2.16
2018-02-06T05:21:51.357Z,2.18
2018-02-06T05:24:18.932Z,2.21
2018-02-06T05:26:46.634Z,2.22
2018-02-06T05:29:14.294Z,2.25
2018-02-06T05:31:41.944Z,2.31
2018-02-06T05:34:09.582Z,2.34
2018-02-06T05:36:38.186Z,2.35
2018-02-06T05:39:05.851Z,2.42
2018-02-06T05:41:33.485Z,2.54
2018-02-06T05:44:01.116Z,2.71
2018-02-06T05:46:28.703Z,2.87
2018-02-06T05:48:56.295Z,3.00
2018-02-06T05:51:23.976Z,3.12
2018-02-06T05:53:51.554Z,3.28
2018-02-06T05:56:19.157Z,3.50
2018-02-06T05:58:47.868Z,3.74
2018-02-06T06:01:15.455Z,3.96
2018-02-06T06:03:43.781Z,4.13
2018-02-06T06:06:12.070Z,4.33
2018-02-06T06:08:39.725Z,4.60
2018-02-06T06:11:07.362Z,4.89
2018-02-06T06:13:35.046Z,5.24
2018-02-06T06:16:02.665Z,5.68
2018-02-06T06:18:30.276Z,6.20
2018-02-06T06:20:57.968Z,6.62
2018-02-06T06:23:25.535Z,7.17
2018-02-06T06:25:53.638Z,7.74
2018-02-06T06:28:21.293Z,8.09
2018-02-06T06:30:48.949Z,8.31
2018-02-06T06:33:16.561Z,8.43
2018-02-06T06:35:44.241Z,8.48
2018-02-06T06:38:11.890Z,8.44
2018-02-06T06:40:39.468Z,8.42
2018-02-06T06:43:07.171Z,8.23
2018-02-06T06:45:34.795Z,8.12
2018-02-06T06:48:02.396Z,7.96
2018-02-06T06:50:30.033Z,7.71
2018-02-06T06:52:57.619Z,7.78
2018-02-06T06:55:25.201Z,7.87
2018-02-06T06:57:52.863Z,7.74
2018-02-06T07:00:20.509Z,7.50
2018-02-06T07:02:48.439Z,7.72
2018-02-06T07:05:16.434Z,7.90
2018-02-06T07:07:44.025Z,8.07
2018-02-06T07:10:11.653Z,8.40
2018-02-06T07:12:39.359Z,8.57
2018-02-06T07:15:07.004Z,8.64
2018-02-06T07:17:34.604Z,8.82
2018-02-06T07:20:02.255Z,9.08
2018-02-06T07:22:29.841Z,9.06
2018-02-06T07:24:57.460Z,8.92
2018-02-06T07:27:25.103Z,8.89
2018-02-06T07:29:53.208Z,8.92
2018-02-06T07:32:20.798Z,9.03
2018-02-06T07:34:48.465Z,9.04
2018-02-06T07:37:16.110Z,8.97
2018-02-06T07:39:43.679Z,9.05
2018-02-06T07:42:11.925Z,9.12
2018-02-06T07:44:39.504Z,9.23
2018-02-06T07:47:07.092Z,9.43
2018-02-06T07:49:34.842Z,9.38
2018-02-06T07:52:02.419Z,9.23
2018-02-06T07:54:30.031Z,9.39
2018-02-06T07:56:57.690Z,9.42
2018-02-06T07:59:25.255Z,9.31
2018-02-06T08:01:52.877Z,9.46
2018-02-06T08:04:20.562Z,9.53
2018-02-06T08:06:48.189Z,9.58
2018-02-06T08:09:15.804Z,9.37
2018-02-06T08:11:43.529Z,9.46
2018-02-06T08:14:11.192Z,9.78
2018-02-06T08:16:38.908Z,9.41
2018-02-06T08:19:06.580Z,9.55
2018-02-06T08:21:34.160Z,9.70
2018-02-06T08:24:01.802Z,10.08
2018-02-06T08:26:29.502Z,10.39
2018-02-06T08:28:57.099Z,10.51
2018-02-06T08:31:24.688Z,10.50
2018-02-06T08:33:52.341Z,10.63
2018-02-06T08:36:20.587Z,10.03
2018-02-06T08:38:48.222Z,10.44
2018-02-06T08:41:15.866Z,9.96
2018-02-06T08:43:43.518Z,10.05
2018-02-06T08:46:12.151Z,10.33
2018-02-06T08:48:42.081Z,10.77
2018-02-06T08:51:09.762Z,10.56
2018-02-06T08:53:38.501Z,10.62
2018-02-06T08:56:06.175Z,10.80
2018-02-06T08:58:33.845Z,10.75
2018-02-06T09:01:01.450Z,11.11
2018-02-06T09:03:29.135Z,11.52
2018-02-06T09:05:56.753Z,11.77
2018-02-06T09:08:24.477Z,11.50
2018-02-06T09:10:52.199Z,11.58
2018-02-06T09:13:19.860Z,11.25
2018-02-06T09:15:47.512Z,11.12
2018-02-06T09:18:15.290Z,11.01
2018-02-06T09:20:42.896Z,11.41
2018-02-06T09:23:10.730Z,12.13
2018-02-06T09:25:38.357Z,11.60
2018-02-06T09:28:05.983Z,12.14
2018-02-06T09:30:33.629Z,12.70
2018-02-06T09:33:01.311Z,12.80
2018-02-06T09:35:28.927Z,13.33
2018-02-06T09:37:56.527Z,13.84
2018-02-06T09:40:24.392Z,14.16
2018-02-06T09:42:52.095Z,13.88
2018-02-06T09:45:19.776Z,13.99
2018-02-06T09:47:47.499Z,13.74
2018-02-06T09:50:15.105Z,13.36
2018-02-06T09:52:42.711Z,13.58
2018-02-06T09:55:10.382Z,13.52
2018-02-06T09:57:37.965Z,13.41
2018-02-06T10:00:05.572Z,13.21
2018-02-06T10:02:33.493Z,13.15
2018-02-06T10:05:01.105Z,13.55
2018-02-06T10:07:28.705Z,13.20
2018-02-06T10:09:56.450Z,13.09
2018-02-06T10:12:24.056Z,13.39
2018-02-06T10:14:52.530Z,12.68
2018-02-06T10:17:20.172Z,13.39
2018-02-06T10:19:47.781Z,13.60
2018-02-06T10:22:15.364Z,13.35
2018-02-06T10:24:43.026Z,13.32
2018-02-06T10:27:10.642Z,13.05
2018-02-06T10:29:38.308Z,12.92
2018-02-06T10:32:05.975Z,12.97
2018-02-06T10:34:33.650Z,12.72
2018-02-06T10:37:01.223Z,12.77
2018-02-06T10:39:29.171Z,12.31
2018-02-06T10:41:56.774Z,11.59
2018-02-06T10:44:25.397Z,11.55
2018-02-06T10:46:53.977Z,11.94
2018-02-06T10:49:22.353Z,12.62
2018-02-06T10:51:49.969Z,12.94
2018-02-06T10:54:17.596Z,12.89
2018-02-06T10:56:45.163Z,12.95
2018-02-06T10:59:12.743Z,12.29
2018-02-06T11:01:40.390Z,12.56
2018-02-06T11:04:07.983Z,12.56
2018-02-06T11:06:35.586Z,12.82
2018-02-06T11:09:03.338Z,13.01
2018-02-06T11:11:30.971Z,13.14
2018-02-06T11:13:58.574Z,13.45
2018-02-06T11:16:26.527Z,13.35
2018-02-06T11:18:54.119Z,13.39
2018-02-06T11:21:21.761Z,13.62
2018-02-06T11:23:49.404Z,13.85
2018-02-06T11:26:16.993Z,14.09
2018-02-06T11:28:44.581Z,14.74
2018-02-06T11:31:12.227Z,14.33
2018-02-06T11:33:39.847Z,15.24
2018-02-06T11:36:07.434Z,15.84
2018-02-06T11:38:35.056Z,16.42
2018-02-06T11:41:02.635Z,17.31
2018-02-06T11:43:30.298Z,17.42
2018-02-06T11:45:58.174Z,17.53
2018-02-06T11:48:25.759Z,17.16
2018-02-06T11:50:53.338Z,17.47
2018-02-06T11:53:21.006Z,18.42
2018-02-06T11:55:48.653Z,19.03
2018-02-06T11:58:16.255Z,19.77
2018-02-06T12:00:43.871Z,19.34
2018-02-06T12:03:12.070Z,19.84
2018-02-06T12:05:39.653Z,19.33
2018-02-06T12:08:07.308Z,20.00
2018-02-06T12:10:35.331Z,19.04
2018-02-06T12:13:03.024Z,18.73
2018-02-06T12:15:30.657Z,17.93
2018-02-06T12:17:58.241Z,17.00
2018-02-06T12:20:25.837Z,18.07
2018-02-06T12:22:53.517Z,18.79
2018-02-06T12:25:21.149Z,19.18
2018-02-06T12:27:48.744Z,18.59
2018-02-06T12:30:16.374Z,18.54
2018-02-06T12:32:43.972Z,18.78
2018-02-06T12:35:11.555Z,19.50
2018-02-06T12:37:39.212Z,20.55
2018-02-06T12:40:06.795Z,19.31
2018-02-06T12:42:34.396Z,17.98
2018-02-06T12:45:03.137Z,17.70
2018-02-06T12:47:30.720Z,17.74
2018-02-06T12:49:58.357Z,18.02
2018-02-06T12:52:25.964Z,18.07
2018-02-06T12:54:53.576Z,18.25
2018-02-06T12:57:21.155Z,18.44
2018-02-06T12:59:49.317Z,18.47
2018-02-06T13:02:16.925Z,18.56
2018-02-06T13:04:44.499Z,18.12
2018-02-06T13:07:12.185Z,18.89
2018-02-06T13:09:39.782Z,18.37
2018-02-06T13:12:07.383Z,18.51
2018-02-06T13:14:35.110Z,17.26
2018-02-06T13:17:02.722Z,16.97
2018-02-06T13:19:30.445Z,16.66
2018-02-06T13:21:58.082Z,16.76
2018-02-06T13:24:25.677Z,16.67
2018-02-06T13:26:53.804Z,16.87
2018-02-06T13:29:21.437Z,16.98
2018-02-06T13:31:49.038Z,16.99
2018-02-06T13:34:16.622Z,16.86
2018-02-06T13:36:44.343Z,16.65
2018-02-06T13:39:12.009Z,16.26
2018-02-06T13:41:39.601Z,15.55
2018-02-06T13:44:08.219Z,15.65
2018-02-06T13:46:35.810Z,15.63
2018-02-06T13:49:03.416Z,15.27
2018-02-06T13:51:31.056Z,14.18
2018-02-06T13:53:58.704Z,14.89
2018-02-06T13:56:26.309Z,15.31
2018-02-06T13:58:53.921Z,15.66
2018-02-06T14:01:21.513Z,15.19
2018-02-06T14:03:49.618Z,13.67
2018-02-06T14:06:17.474Z,13.36
2018-02-06T14:08:45.036Z,12.83
2018-02-06T14:11:12.674Z,12.32
2018-02-06T14:13:40.360Z,11.97
2018-02-06T14:16:10.809Z,11.78
2018-02-06T14:18:38.463Z,11.12
2018-02-06T14:21:06.097Z,11.12
2018-02-06T14:23:33.703Z,11.08
2018-02-06T14:26:01.293Z,10.93
2018-02-06T14:28:28.923Z,10.75
2018-02-06T14:30:56.512Z,10.58
2018-02-06T14:33:24.080Z,10.41
2018-02-06T14:36:03.200Z,10.22
2018-02-06T14:38:33.257Z,10.19
2018-02-06T14:41:01.339Z,10.11
2018-02-06T14:43:28.987Z,9.91
2018-02-06T14:45:56.611Z,9.94
2018-02-06T14:48:24.249Z,9.97
2018-02-06T14:50:51.856Z,9.89
2018-02-06T14:53:19.499Z,9.83
2018-02-06T14:55:47.128Z,9.83
2018-02-06T14:58:14.728Z,9.76
2018-02-06T15:00:42.312Z,9.82
2018-02-06T15:03:09.937Z,9.84
2018-02-06T15:05:37.523Z,9.86
2018-02-06T15:08:05.138Z,9.88
2018-02-06T15:10:32.845Z,9.86
2018-02-06T15:13:00.502Z,9.73
2018-02-06T15:15:28.161Z,9.64
2018-02-06T15:17:56.334Z,9.42
2018-02-06T15:20:23.908Z,9.26
2018-02-06T15:22:51.544Z,9.14
2018-02-06T15:25:19.191Z,9.05
2018-02-06T15:27:47.809Z,8.99
2018-02-06T15:30:15.376Z,8.96
2018-02-06T15:32:43.024Z,8.81
2018-02-06T15:35:10.633Z,8.70
2018-02-06T15:37:38.233Z,8.61
2018-02-06T15:40:05.911Z,8.56
2018-02-06T15:42:33.464Z,8.47
2018-02-06T15:45:01.120Z,8.36
2018-02-06T15:47:28.802Z,8.23
2018-02-06T15:49:56.413Z,8.08
2018-02-06T15:52:23.995Z,8.00
2018-02-06T15:54:51.654Z,7.90
2018-02-06T15:57:19.232Z,7.81
2018-02-06T15:59:46.846Z,7.75
2018-02-06T16:02:14.571Z,7.71
2018-02-06T16:04:43.038Z,7.64
2018-02-06T16:07:10.622Z,7.59
2018-02-06T16:09:38.267Z,7.56
2018-02-06T16:12:05.909Z,7.51
2018-02-06T16:14:33.594Z,7.51
2018-02-06T16:17:01.313Z,7.50
2018-02-06T16:19:29.400Z,7.46
2018-02-06T16:21:57.068Z,7.43
2018-02-06T16:24:24.871Z,7.42
2018-02-06T16:26:52.510Z,7.37
2018-02-06T16:29:20.165Z,7.35
2018-02-06T16:31:47.940Z,7.33
2018-02-06T16:34:15.690Z,7.30
2018-02-06T16:36:43.367Z,7.27
2018-02-06T16:39:11.058Z,7.20
2018-02-06T16:41:38.711Z,7.18
2018-02-06T16:44:06.517Z,7.16
2018-02-06T16:46:34.511Z,7.14
2018-02-06T16:49:02.433Z,7.13
2018-02-06T16:51:30.191Z,7.12
2018-02-06T16:53:57.993Z,7.12
2018-02-06T16:56:25.784Z,7.11
2018-02-06T16:58:53.591Z,7.06
2018-02-06T17:01:21.442Z,7.06
2018-02-06T17:03:49.416Z,7.04
2018-02-06T17:06:17.253Z,7.02
2018-02-06T17:08:45.162Z,7.03
2018-02-06T17:11:13.003Z,7.03
2018-02-06T17:13:40.937Z,7.05
2018-02-06T17:16:08.881Z,7.04
2018-02-06T17:18:36.838Z,7.05
2018-02-06T17:21:05.273Z,7.07
2018-02-06T17:23:33.551Z,7.05
2018-02-06T17:26:01.438Z,7.07
2018-02-06T17:28:29.300Z,7.07
2018-02-06T17:30:57.266Z,7.09
2018-02-06T17:33:25.121Z,7.10
2018-02-06T17:35:53.214Z,7.10
2018-02-06T17:38:21.160Z,7.11
2018-02-06T17:40:49.084Z,7.08
2018-02-06T17:43:17.039Z,7.08
2018-02-06T17:45:45.015Z,7.05
2018-02-06T17:48:12.957Z,7.04
2018-02-06T17:50:40.919Z,7.07
2018-02-06T17:53:08.940Z,7.07
2018-02-06T17:55:36.979Z,7.05
2018-02-06T17:58:05.049Z,7.07
2018-02-06T18:00:33.478Z,7.05
2018-02-06T18:03:02.236Z,7.08
2018-02-06T18:05:30.598Z,7.10
2018-02-06T18:07:59.185Z,7.07
2018-02-06T18:10:27.189Z,7.02
2018-02-06T18:12:55.538Z,7.01
2018-02-06T18:15:23.727Z,6.99
2018-02-06T18:17:52.241Z,7.01
2018-02-06T18:20:20.500Z,6.97
2018-02-06T18:22:48.938Z,6.95
2018-02-06T18:25:17.010Z,6.91
2018-02-06T18:27:45.068Z,6.94
2018-02-06T18:30:13.309Z,6.95
2018-02-06T18:32:41.544Z,6.94
2018-02-06T18:35:11.725Z,6.93
2018-02-06T18:37:39.812Z,6.91
2018-02-06T18:40:07.830Z,6.88
2018-02-06T18:42:36.191Z,6.86
2018-02-06T18:45:04.247Z,6.85
2018-02-06T18:47:32.524Z,6.82
2018-02-06T18:50:00.625Z,6.77
2018-02-06T18:52:28.577Z,6.77
2018-02-06T18:54:56.464Z,6.79
2018-02-06T18:57:24.432Z,6.81
2018-02-06T18:59:52.604Z,6.73
2018-02-06T19:02:20.918Z,6.73
2018-02-06T19:04:49.487Z,6.69
2018-02-06T19:07:17.726Z,6.68
2018-02-06T19:09:46.034Z,6.69
2018-02-06T19:12:14.097Z,6.71
2018-02-06T19:14:42.430Z,6.63
2018-02-06T19:17:10.742Z,6.65
2018-02-06T19:19:39.227Z,6.57
2018-02-06T19:22:08.211Z,6.56
2018-02-06T19:24:36.676Z,6.56
2018-02-06T19:27:04.765Z,6.57
2018-02-06T19:29:32.976Z,6.58
2018-02-06T19:32:00.875Z,6.58
2018-02-06T19:34:28.842Z,6.61
2018-02-06T19:36:56.924Z,6.67
2018-02-06T19:39:24.927Z,6.73
2018-02-06T19:41:53.612Z,6.74
2018-02-06T19:44:21.784Z,6.73
2018-02-06T19:46:49.761Z,6.75
2018-02-06T19:49:18.449Z,6.79
2018-02-06T19:51:46.940Z,6.76
2018-02-06T19:54:15.312Z,6.75
2018-02-06T19:56:43.737Z,6.71
2018-02-06T19:59:11.651Z,6.64
2018-02-06T20:01:39.783Z,6.57
2018-02-06T20:04:07.900Z,6.44
2018-02-06T20:06:36.236Z,6.39
2018-02-06T20:09:04.214Z,6.40
2018-02-06T20:11:32.114Z,6.39
2018-02-06T20:14:00.132Z,6.37
2018-02-06T20:16:28.013Z,6.32
2018-02-06T20:18:55.914Z,6.33
2018-02-06T20:21:24.028Z,6.32
2018-02-06T20:23:52.117Z,6.31
2018-02-06T20:26:20.362Z,6.28
2018-02-06T20:28:48.257Z,6.23
2018-02-06T20:31:16.119Z,6.20
2018-02-06T20:33:43.985Z,6.20
2018-02-06T20:36:12.072Z,6.17
2018-02-06T20:38:40.012Z,6.13
2018-02-06T20:41:07.956Z,6.11
2018-02-06T20:43:35.900Z,6.12
2018-02-06T20:46:04.125Z,6.12
2018-02-06T20:48:32.052Z,6.08
2018-02-06T20:51:00.136Z,6.03
2018-02-06T20:53:28.078Z,5.99
2018-02-06T20:55:56.163Z,5.95
2018-02-06T20:58:24.387Z,5.92
2018-02-06T21:00:52.384Z,5.92
2018-02-06T21:03:20.386Z,5.91
2018-02-06T21:05:48.253Z,5.91
2018-02-06T21:08:16.075Z,5.91
2018-02-06T21:10:43.738Z,5.87
2018-02-06T21:13:11.409Z,5.85
2018-02-06T21:15:39.124Z,5.84
2018-02-06T21:18:06.874Z,5.80
2018-02-06T21:20:34.599Z,5.77
2018-02-06T21:23:02.211Z,5.79
2018-02-06T21:25:29.783Z,5.80
2018-02-06T21:27:57.558Z,5.76
2018-02-06T21:30:25.137Z,5.75
2018-02-06T21:32:52.717Z,5.72
2018-02-06T21:35:20.369Z,5.69
2018-02-06T21:37:47.948Z,5.69
2018-02-06T21:40:15.526Z,5.71
2018-02-06T21:42:43.141Z,5.72
2018-02-06T21:45:10.737Z,5.73
2018-02-06T21:47:38.316Z,5.73
2018-02-06T21:50:05.959Z,5.73
2018-02-06T21:52:33.598Z,5.73
2018-02-06T21:55:01.234Z,5.74
2018-02-06T21:57:28.864Z,5.67
2018-02-06T21:59:56.458Z,5.64
2018-02-06T22:02:24.119Z,5.50
2018-02-06T22:04:51.768Z,5.34
2018-02-06T22:07:19.324Z,5.19
2018-02-06T22:09:46.899Z,5.07
2018-02-06T22:12:14.510Z,5.00
2018-02-06T22:14:42.078Z,4.89
2018-02-06T22:17:09.718Z,4.83
2018-02-06T22:19:37.689Z,4.76
2018-02-06T22:22:05.279Z,4.67
2018-02-06T22:24:32.839Z,4.61
2018-02-06T22:27:00.982Z,4.52
2018-02-06T22:29:28.698Z,4.44
2018-02-06T22:31:56.260Z,4.37
2018-02-06T22:34:26.168Z,4.33
2018-02-06T22:36:53.802Z,4.28
2018-02-06T22:39:21.392Z,4.27
2018-02-06T22:41:49.012Z,4.24
2018-02-06T22:44:16.649Z,4.23
2018-02-06T22:46:44.288Z,4.27
2018-02-06T22:49:11.909Z,4.24
2018-02-06T22:51:39.473Z,4.17
2018-02-06T22:54:07.054Z,4.11
2018-02-06T22:56:34.685Z,4.03
2018-02-06T22:59:02.280Z,4.00
2018-02-06T23:01:29.849Z,3.97
2018-02-06T23:03:57.469Z,3.98
2018-02-06T23:06:25.091Z,3.95
2018-02-06T23:08:52.665Z,3.87
2018-02-06T23:11:20.361Z,3.85
2018-02-06T23:13:48.312Z,3.78
2018-02-06T23:16:16.448Z,3.76
2018-02-06T23:18:45.173Z,3.73
2018-02-06T23:21:12.796Z,3.71
2018-02-06T23:23:40.381Z,3.69
2018-02-06T23:26:08.664Z,3.63
2018-02-06T23:28:36.228Z,3.62
2018-02-06T23:31:03.883Z,3.65
2018-02-06T23:33:31.505Z,3.68
2018-02-06T23:35:59.089Z,3.76
2018-02-06T23:38:26.657Z,3.86
2018-02-06T23:40:54.358Z,3.94
2018-02-06T23:43:21.923Z,4.04
2018-02-06T23:45:49.560Z,4.08
2018-02-06T23:48:17.244Z,4.17
2018-02-06T23:50:44.840Z,4.23
2018-02-06T23:53:12.648Z,4.32
2018-02-06T23:55:40.322Z,4.37
2018-02-06T23:58:07.894Z,4.41
